sensor_id;sensor_type;location;lat;lon;timestamp;P1;P2;P0
69205;PMS7003;56319;48.920;2.332;2023-01-31T00:01:16;13.25;11.75;9.25
69205;PMS7003;56319;48.920;2.332;2023-01-31T00:03:45;16.50;13.75;10.50
69205;PMS7003;56319;48.920;2.332;2023-01-31T00:06:15;12.25;11.25;9.75
69205;PMS7003;56319;48.920;2.332;2023-01-31T00:08:44;11.50;10.00;9.00
69205;PMS7003;56319;48.920;2.332;2023-01-31T00:11:11;20.75;14.00;11.75
69205;PMS7003;56319;48.920;2.332;2023-01-31T00:13:37;15.25;15.25;11.00
69205;PMS7003;56319;48.920;2.332;2023-01-31T00:16:03;18.00;15.75;11.00
69205;PMS7003;56319;48.920;2.332;2023-01-31T00:18:29;16.00;13.75;11.25
69205;PMS7003;56319;48.920;2.332;2023-01-31T00:20:55;20.50;15.00;11.75
69205;PMS7003;56319;48.920;2.332;2023-01-31T00:23:20;19.50;14.75;12.00
69205;PMS7003;56319;48.920;2.332;2023-01-31T00:25:46;19.25;17.50;11.25
69205;PMS7003;56319;48.920;2.332;2023-01-31T00:28:11;20.25;15.25;11.25
69205;PMS7003;56319;48.920;2.332;2023-01-31T00:30:37;16.50;15.25;12.25
69205;PMS7003;56319;48.920;2.332;2023-01-31T00:33:02;22.00;16.00;12.75
69205;PMS7003;56319;48.920;2.332;2023-01-31T00:35:28;15.50;15.00;12.00
69205;PMS7003;56319;48.920;2.332;2023-01-31T00:37:54;19.75;13.75;11.00
69205;PMS7003;56319;48.920;2.332;2023-01-31T00:40:19;17.50;14.50;11.75
69205;PMS7003;56319;48.920;2.332;2023-01-31T00:42:45;18.00;18.00;13.00
69205;PMS7003;56319;48.920;2.332;2023-01-31T00:45:10;17.25;14.00;10.75
69205;PMS7003;56319;48.920;2.332;2023-01-31T00:47:36;20.75;17.25;13.50
69205;PMS7003;56319;48.920;2.332;2023-01-31T00:50:02;23.00;18.50;13.25
69205;PMS7003;56319;48.920;2.332;2023-01-31T00:52:29;19.75;18.75;13.75
69205;PMS7003;56319;48.920;2.332;2023-01-31T00:54:54;17.25;16.50;13.25
69205;PMS7003;56319;48.920;2.332;2023-01-31T00:57:20;9.75;8.75;6.00
69205;PMS7003;56319;48.920;2.332;2023-01-31T00:59:45;21.00;18.25;14.00
69205;PMS7003;56319;48.920;2.332;2023-01-31T01:02:11;20.50;16.50;12.25
69205;PMS7003;56319;48.920;2.332;2023-01-31T01:04:36;20.00;19.00;16.25
69205;PMS7003;56319;48.920;2.332;2023-01-31T01:07:02;19.75;18.75;15.75
69205;PMS7003;56319;48.920;2.332;2023-01-31T01:09:27;19.50;17.50;11.25
69205;PMS7003;56319;48.920;2.332;2023-01-31T01:11:53;12.75;12.75;9.50
69205;PMS7003;56319;48.920;2.332;2023-01-31T01:14:18;19.50;16.75;14.00
69205;PMS7003;56319;48.920;2.332;2023-01-31T01:16:44;20.00;16.50;12.75
69205;PMS7003;56319;48.920;2.332;2023-01-31T01:19:14;15.75;15.00;11.75
69205;PMS7003;56319;48.920;2.332;2023-01-31T01:21:41;18.50;17.50;13.25
69205;PMS7003;56319;48.920;2.332;2023-01-31T01:24:12;15.50;14.25;11.00
69205;PMS7003;56319;48.920;2.332;2023-01-31T01:26:39;18.50;17.25;13.00
69205;PMS7003;56319;48.920;2.332;2023-01-31T01:29:04;15.50;14.25;11.25
69205;PMS7003;56319;48.920;2.332;2023-01-31T01:31:30;18.25;17.75;13.00
69205;PMS7003;56319;48.920;2.332;2023-01-31T01:33:57;22.25;16.25;12.50
69205;PMS7003;56319;48.920;2.332;2023-01-31T01:36:24;18.25;16.50;13.25
69205;PMS7003;56319;48.920;2.332;2023-01-31T01:38:49;13.50;11.50;9.25
69205;PMS7003;56319;48.920;2.332;2023-01-31T01:41:15;18.75;17.75;12.25
69205;PMS7003;56319;48.920;2.332;2023-01-31T01:43:53;13.75;12.25;10.00
69205;PMS7003;56319;48.920;2.332;2023-01-31T01:51:57;16.50;13.75;11.25
69205;PMS7003;56319;48.920;2.332;2023-01-31T01:54:28;13.50;12.75;10.75
69205;PMS7003;56319;48.920;2.332;2023-01-31T01:57:01;18.25;16.00;12.50
69205;PMS7003;56319;48.920;2.332;2023-01-31T01:59:32;16.25;14.00;10.50
69205;PMS7003;56319;48.920;2.332;2023-01-31T02:02:07;14.50;13.25;10.50
69205;PMS7003;56319;48.920;2.332;2023-01-31T02:04:35;22.75;14.25;12.50
69205;PMS7003;56319;48.920;2.332;2023-01-31T02:07:03;17.25;14.00;11.25
69205;PMS7003;56319;48.920;2.332;2023-01-31T02:09:33;18.00;13.50;11.25
69205;PMS7003;56319;48.920;2.332;2023-01-31T02:12:09;14.00;13.25;11.25
69205;PMS7003;56319;48.920;2.332;2023-01-31T02:14:36;16.25;14.00;11.50
69205;PMS7003;56319;48.920;2.332;2023-01-31T02:17:03;16.00;13.00;10.00
69205;PMS7003;56319;48.920;2.332;2023-01-31T02:22:29;14.25;13.25;11.25
69205;PMS7003;56319;48.920;2.332;2023-01-31T02:25:07;16.75;14.75;11.50
69205;PMS7003;56319;48.920;2.332;2023-01-31T02:31:01;17.25;12.75;9.75
69205;PMS7003;56319;48.920;2.332;2023-01-31T02:33:52;15.75;13.50;11.00
69205;PMS7003;56319;48.920;2.332;2023-01-31T02:42:46;12.75;12.75;9.75
69205;PMS7003;56319;48.920;2.332;2023-01-31T02:45:28;12.75;12.75;10.75
69205;PMS7003;56319;48.920;2.332;2023-01-31T02:48:04;14.50;13.25;10.75
69205;PMS7003;56319;48.920;2.332;2023-01-31T02:53:34;15.25;12.75;10.75
69205;PMS7003;56319;48.920;2.332;2023-01-31T02:56:05;11.50;11.50;10.25
69205;PMS7003;56319;48.920;2.332;2023-01-31T02:58:39;17.50;14.00;11.00
69205;PMS7003;56319;48.920;2.332;2023-01-31T03:01:09;16.00;13.50;11.00
69205;PMS7003;56319;48.920;2.332;2023-01-31T03:03:39;12.50;12.50;9.75
69205;PMS7003;56319;48.920;2.332;2023-01-31T03:09:22;15.25;13.25;9.50
69205;PMS7003;56319;48.920;2.332;2023-01-31T03:12:15;15.00;13.00;11.50
69205;PMS7003;56319;48.920;2.332;2023-01-31T03:15:08;13.25;13.00;11.50
69205;PMS7003;56319;48.920;2.332;2023-01-31T03:17:49;15.00;11.50;9.00
69205;PMS7003;56319;48.920;2.332;2023-01-31T03:20:32;13.00;11.00;10.00
69205;PMS7003;56319;48.920;2.332;2023-01-31T03:23:11;14.00;12.00;9.50
69205;PMS7003;56319;48.920;2.332;2023-01-31T03:25:40;12.75;12.50;9.50
69205;PMS7003;56319;48.920;2.332;2023-01-31T03:28:07;12.00;12.00;10.00
69205;PMS7003;56319;48.920;2.332;2023-01-31T03:30:41;15.25;14.75;11.25
69205;PMS7003;56319;48.920;2.332;2023-01-31T03:33:14;13.50;12.00;9.25
69205;PMS7003;56319;48.920;2.332;2023-01-31T03:35:45;18.50;17.25;12.50
69205;PMS7003;56319;48.920;2.332;2023-01-31T03:38:16;15.75;13.50;11.00
69205;PMS7003;56319;48.920;2.332;2023-01-31T03:40:50;15.75;13.00;10.25
69205;PMS7003;56319;48.920;2.332;2023-01-31T03:43:25;14.00;11.75;9.75
69205;PMS7003;56319;48.920;2.332;2023-01-31T03:45:59;10.75;9.00;5.75
69205;PMS7003;56319;48.920;2.332;2023-01-31T03:48:32;10.75;9.00;8.00
69205;PMS7003;56319;48.920;2.332;2023-01-31T03:51:03;12.75;12.00;10.50
69205;PMS7003;56319;48.920;2.332;2023-01-31T03:53:34;15.75;11.50;10.50
69205;PMS7003;56319;48.920;2.332;2023-01-31T03:56:07;18.00;14.50;10.25
69205;PMS7003;56319;48.920;2.332;2023-01-31T03:58:42;22.25;14.50;11.25
69205;PMS7003;56319;48.920;2.332;2023-01-31T04:01:14;13.00;12.50;10.25
69205;PMS7003;56319;48.920;2.332;2023-01-31T04:03:45;11.50;11.50;8.00
69205;PMS7003;56319;48.920;2.332;2023-01-31T04:06:16;13.25;12.75;10.00
69205;PMS7003;56319;48.920;2.332;2023-01-31T04:08:42;11.50;10.00;8.00
69205;PMS7003;56319;48.920;2.332;2023-01-31T04:11:08;13.00;13.00;10.75
69205;PMS7003;56319;48.920;2.332;2023-01-31T04:13:36;13.25;12.00;10.25
69205;PMS7003;56319;48.920;2.332;2023-01-31T04:16:02;12.75;11.75;10.25
69205;PMS7003;56319;48.920;2.332;2023-01-31T04:18:28;11.50;10.50;8.75
69205;PMS7003;56319;48.920;2.332;2023-01-31T04:20:53;14.25;10.75;8.25
69205;PMS7003;56319;48.920;2.332;2023-01-31T04:23:19;15.00;11.50;10.50
69205;PMS7003;56319;48.920;2.332;2023-01-31T04:25:45;12.75;10.25;9.00
69205;PMS7003;56319;48.920;2.332;2023-01-31T04:28:10;10.50;10.50;7.50
69205;PMS7003;56319;48.920;2.332;2023-01-31T04:30:36;11.50;11.50;9.50
69205;PMS7003;56319;48.920;2.332;2023-01-31T04:33:02;11.00;9.50;8.25
69205;PMS7003;56319;48.920;2.332;2023-01-31T04:35:28;12.50;10.75;9.25
69205;PMS7003;56319;48.920;2.332;2023-01-31T04:37:54;13.00;11.50;9.25
69205;PMS7003;56319;48.920;2.332;2023-01-31T04:40:19;14.00;11.00;9.00
69205;PMS7003;56319;48.920;2.332;2023-01-31T04:42:45;15.50;10.50;9.50
69205;PMS7003;56319;48.920;2.332;2023-01-31T04:45:11;13.50;10.75;9.25
69205;PMS7003;56319;48.920;2.332;2023-01-31T04:47:37;7.00;6.00;4.00
69205;PMS7003;56319;48.920;2.332;2023-01-31T04:50:03;13.75;10.75;7.75
69205;PMS7003;56319;48.920;2.332;2023-01-31T04:52:28;11.75;11.25;10.00
69205;PMS7003;56319;48.920;2.332;2023-01-31T04:54:54;10.50;10.25;8.50
69205;PMS7003;56319;48.920;2.332;2023-01-31T04:57:19;12.00;10.00;8.25
69205;PMS7003;56319;48.920;2.332;2023-01-31T04:59:45;15.50;10.75;9.50
69205;PMS7003;56319;48.920;2.332;2023-01-31T05:02:11;12.50;11.25;8.75
69205;PMS7003;56319;48.920;2.332;2023-01-31T05:04:39;10.25;9.25;7.00
69205;PMS7003;56319;48.920;2.332;2023-01-31T05:07:04;9.75;8.00;6.75
69205;PMS7003;56319;48.920;2.332;2023-01-31T05:09:30;12.00;9.25;8.25
69205;PMS7003;56319;48.920;2.332;2023-01-31T05:11:55;10.00;10.00;7.50
69205;PMS7003;56319;48.920;2.332;2023-01-31T05:14:21;11.00;9.75;8.75
69205;PMS7003;56319;48.920;2.332;2023-01-31T05:16:47;9.75;9.75;8.25
69205;PMS7003;56319;48.920;2.332;2023-01-31T05:19:13;9.50;8.75;7.00
69205;PMS7003;56319;48.920;2.332;2023-01-31T05:21:39;9.00;9.00;5.75
69205;PMS7003;56319;48.920;2.332;2023-01-31T05:24:26;10.00;9.50;8.75
69205;PMS7003;56319;48.920;2.332;2023-01-31T05:26:54;9.50;8.50;7.75
69205;PMS7003;56319;48.920;2.332;2023-01-31T05:29:23;8.50;8.50;7.50
69205;PMS7003;56319;48.920;2.332;2023-01-31T05:31:50;12.50;9.25;6.75
69205;PMS7003;56319;48.920;2.332;2023-01-31T05:34:17;8.50;8.00;6.75
69205;PMS7003;56319;48.920;2.332;2023-01-31T05:36:43;8.00;7.25;7.00
69205;PMS7003;56319;48.920;2.332;2023-01-31T05:39:08;11.00;10.00;8.25
69205;PMS7003;56319;48.920;2.332;2023-01-31T05:41:34;9.75;7.00;6.00
69205;PMS7003;56319;48.920;2.332;2023-01-31T05:44:00;10.75;7.25;6.00
69205;PMS7003;56319;48.920;2.332;2023-01-31T05:46:25;9.75;8.25;6.75
69205;PMS7003;56319;48.920;2.332;2023-01-31T05:48:51;6.00;6.00;5.00
69205;PMS7003;56319;48.920;2.332;2023-01-31T05:51:16;10.75;8.00;6.25
69205;PMS7003;56319;48.920;2.332;2023-01-31T05:53:42;8.75;8.25;6.25
69205;PMS7003;56319;48.920;2.332;2023-01-31T05:56:07;8.75;8.75;7.25
69205;PMS7003;56319;48.920;2.332;2023-01-31T05:58:33;7.75;7.25;6.00
69205;PMS7003;56319;48.920;2.332;2023-01-31T06:00:59;8.25;7.75;6.50
69205;PMS7003;56319;48.920;2.332;2023-01-31T06:03:24;11.75;10.75;7.00
69205;PMS7003;56319;48.920;2.332;2023-01-31T06:05:50;10.25;8.00;6.50
69205;PMS7003;56319;48.920;2.332;2023-01-31T06:08:15;10.25;8.50;7.25
69205;PMS7003;56319;48.920;2.332;2023-01-31T06:10:41;7.50;7.50;7.00
69205;PMS7003;56319;48.920;2.332;2023-01-31T06:13:07;11.25;9.00;6.75
69205;PMS7003;56319;48.920;2.332;2023-01-31T06:15:33;7.00;7.00;6.50
69205;PMS7003;56319;48.920;2.332;2023-01-31T06:17:58;8.50;7.25;6.25
69205;PMS7003;56319;48.920;2.332;2023-01-31T06:20:24;9.50;7.75;6.25
69205;PMS7003;56319;48.920;2.332;2023-01-31T06:22:50;9.25;7.00;5.50
69205;PMS7003;56319;48.920;2.332;2023-01-31T06:25:16;9.25;8.25;7.00
69205;PMS7003;56319;48.920;2.332;2023-01-31T06:27:42;6.50;6.50;5.25
69205;PMS7003;56319;48.920;2.332;2023-01-31T06:30:08;6.25;6.25;5.50
69205;PMS7003;56319;48.920;2.332;2023-01-31T06:32:35;6.50;3.00;2.00
69205;PMS7003;56319;48.920;2.332;2023-01-31T06:35:01;9.75;9.25;7.50
69205;PMS7003;56319;48.920;2.332;2023-01-31T06:37:28;9.00;8.00;6.00
69205;PMS7003;56319;48.920;2.332;2023-01-31T06:39:53;5.75;5.75;5.00
69205;PMS7003;56319;48.920;2.332;2023-01-31T06:42:19;7.25;7.25;6.50
69205;PMS7003;56319;48.920;2.332;2023-01-31T06:44:44;11.00;8.00;6.00
69205;PMS7003;56319;48.920;2.332;2023-01-31T06:47:10;10.25;8.75;7.00
69205;PMS7003;56319;48.920;2.332;2023-01-31T06:49:37;6.00;6.00;5.00
69205;PMS7003;56319;48.920;2.332;2023-01-31T06:52:03;10.00;7.00;6.00
69205;PMS7003;56319;48.920;2.332;2023-01-31T06:54:29;5.50;5.50;5.00
69205;PMS7003;56319;48.920;2.332;2023-01-31T06:56:54;5.50;5.25;4.75
69205;PMS7003;56319;48.920;2.332;2023-01-31T06:59:20;6.75;6.75;5.25
69205;PMS7003;56319;48.920;2.332;2023-01-31T07:01:46;6.25;5.25;5.00
69205;PMS7003;56319;48.920;2.332;2023-01-31T07:04:11;6.50;5.50;5.00
69205;PMS7003;56319;48.920;2.332;2023-01-31T07:06:37;7.25;6.25;5.25
69205;PMS7003;56319;48.920;2.332;2023-01-31T07:09:02;9.75;7.25;5.25
69205;PMS7003;56319;48.920;2.332;2023-01-31T07:11:28;7.25;6.00;5.00
69205;PMS7003;56319;48.920;2.332;2023-01-31T07:13:53;6.75;6.75;5.00
69205;PMS7003;56319;48.920;2.332;2023-01-31T07:16:19;5.00;5.00;4.00
69205;PMS7003;56319;48.920;2.332;2023-01-31T07:18:46;5.00;5.00;4.00
69205;PMS7003;56319;48.920;2.332;2023-01-31T07:21:12;6.50;4.25;3.50
69205;PMS7003;56319;48.920;2.332;2023-01-31T07:23:38;6.00;6.00;5.00
69205;PMS7003;56319;48.920;2.332;2023-01-31T07:26:04;6.00;5.75;5.00
69205;PMS7003;56319;48.920;2.332;2023-01-31T07:28:30;6.00;6.00;5.00
69205;PMS7003;56319;48.920;2.332;2023-01-31T07:31:02;12.75;10.25;8.25
69205;PMS7003;56319;48.920;2.332;2023-01-31T07:33:28;8.00;8.00;6.50
69205;PMS7003;56319;48.920;2.332;2023-01-31T07:35:54;10.75;8.25;5.50
69205;PMS7003;56319;48.920;2.332;2023-01-31T07:38:19;7.00;5.00;4.00
69205;PMS7003;56319;48.920;2.332;2023-01-31T07:40:45;6.00;6.00;6.00
69205;PMS7003;56319;48.920;2.332;2023-01-31T07:43:10;10.00;6.00;4.00
69205;PMS7003;56319;48.920;2.332;2023-01-31T07:45:37;6.00;6.00;5.25
69205;PMS7003;56319;48.920;2.332;2023-01-31T07:48:03;7.25;6.25;5.00
69205;PMS7003;56319;48.920;2.332;2023-01-31T07:50:30;5.25;4.75;4.00
69205;PMS7003;56319;48.920;2.332;2023-01-31T07:52:56;5.00;4.00;3.00
69205;PMS7003;56319;48.920;2.332;2023-01-31T07:55:23;5.25;4.50;3.50
69205;PMS7003;56319;48.920;2.332;2023-01-31T07:57:49;6.50;5.25;4.25
69205;PMS7003;56319;48.920;2.332;2023-01-31T08:00:14;7.00;5.00;4.75
69205;PMS7003;56319;48.920;2.332;2023-01-31T08:03:00;3.00;3.00;2.00
69205;PMS7003;56319;48.920;2.332;2023-01-31T08:05:46;6.50;5.50;4.75
69205;PMS7003;56319;48.920;2.332;2023-01-31T08:08:12;7.75;4.75;3.50
69205;PMS7003;56319;48.920;2.332;2023-01-31T08:10:38;4.50;4.50;4.00
69205;PMS7003;56319;48.920;2.332;2023-01-31T08:13:04;5.75;5.75;4.25
69205;PMS7003;56319;48.920;2.332;2023-01-31T08:15:31;7.25;6.00;5.00
69205;PMS7003;56319;48.920;2.332;2023-01-31T08:17:57;4.50;4.50;3.25
69205;PMS7003;56319;48.920;2.332;2023-01-31T08:20:22;7.50;4.75;4.00
69205;PMS7003;56319;48.920;2.332;2023-01-31T08:22:48;4.25;4.25;4.00
69205;PMS7003;56319;48.920;2.332;2023-01-31T08:25:14;7.00;4.75;3.75
69205;PMS7003;56319;48.920;2.332;2023-01-31T08:27:39;5.50;5.50;4.00
69205;PMS7003;56319;48.920;2.332;2023-01-31T08:30:05;4.50;3.00;3.00
69205;PMS7003;56319;48.920;2.332;2023-01-31T08:32:34;4.25;4.25;4.00
69205;PMS7003;56319;48.920;2.332;2023-01-31T08:35:00;6.00;4.50;3.50
69205;PMS7003;56319;48.920;2.332;2023-01-31T08:37:25;4.75;4.75;4.00
69205;PMS7003;56319;48.920;2.332;2023-01-31T08:39:51;6.00;5.25;4.00
69205;PMS7003;56319;48.920;2.332;2023-01-31T08:42:16;4.00;3.75;3.00
69205;PMS7003;56319;48.920;2.332;2023-01-31T08:44:42;8.25;5.00;4.00
69205;PMS7003;56319;48.920;2.332;2023-01-31T08:47:08;3.25;3.25;2.50
69205;PMS7003;56319;48.920;2.332;2023-01-31T08:49:35;7.00;4.25;4.00
69205;PMS7003;56319;48.920;2.332;2023-01-31T08:52:01;4.50;2.50;2.50
69205;PMS7003;56319;48.920;2.332;2023-01-31T08:54:26;5.75;4.75;4.00
69205;PMS7003;56319;48.920;2.332;2023-01-31T08:56:52;8.25;4.75;3.25
69205;PMS7003;56319;48.920;2.332;2023-01-31T08:59:18;5.00;3.50;2.50
69205;PMS7003;56319;48.920;2.332;2023-01-31T09:01:43;6.00;3.25;3.00
69205;PMS7003;56319;48.920;2.332;2023-01-31T09:04:10;7.25;4.00;3.00
69205;PMS7003;56319;48.920;2.332;2023-01-31T09:06:36;5.75;4.75;3.00
69205;PMS7003;56319;48.920;2.332;2023-01-31T09:09:01;4.00;4.00;3.25
69205;PMS7003;56319;48.920;2.332;2023-01-31T09:11:27;5.50;3.75;3.00
69205;PMS7003;56319;48.920;2.332;2023-01-31T09:13:54;4.00;3.25;3.00
69205;PMS7003;56319;48.920;2.332;2023-01-31T09:16:20;3.50;3.50;3.25
69205;PMS7003;56319;48.920;2.332;2023-01-31T09:18:45;4.00;4.00;3.00
69205;PMS7003;56319;48.920;2.332;2023-01-31T09:21:12;7.00;4.00;3.00
69205;PMS7003;56319;48.920;2.332;2023-01-31T09:23:40;3.00;3.00;3.00
69205;PMS7003;56319;48.920;2.332;2023-01-31T09:26:06;3.25;2.75;2.50
69205;PMS7003;56319;48.920;2.332;2023-01-31T09:28:31;3.00;3.00;2.00
69205;PMS7003;56319;48.920;2.332;2023-01-31T09:31:01;4.00;3.00;3.00
69205;PMS7003;56319;48.920;2.332;2023-01-31T09:33:29;3.00;3.00;2.00
69205;PMS7003;56319;48.920;2.332;2023-01-31T09:35:58;2.75;2.00;1.00
69205;PMS7003;56319;48.920;2.332;2023-01-31T09:38:25;3.25;3.25;3.00
69205;PMS7003;56319;48.920;2.332;2023-01-31T09:40:52;4.50;4.50;3.00
69205;PMS7003;56319;48.920;2.332;2023-01-31T09:43:19;3.75;3.75;3.00
69205;PMS7003;56319;48.920;2.332;2023-01-31T09:45:49;5.75;4.00;3.00
69205;PMS7003;56319;48.920;2.332;2023-01-31T09:48:21;3.25;3.25;2.00
69205;PMS7003;56319;48.920;2.332;2023-01-31T09:50:50;3.00;3.00;3.00
69205;PMS7003;56319;48.920;2.332;2023-01-31T09:53:21;4.00;4.00;3.00
69205;PMS7003;56319;48.920;2.332;2023-01-31T09:55:52;4.50;3.75;3.00
69205;PMS7003;56319;48.920;2.332;2023-01-31T10:01:31;3.75;3.75;3.00
69205;PMS7003;56319;48.920;2.332;2023-01-31T10:06:42;4.00;4.00;3.75
69205;PMS7003;56319;48.920;2.332;2023-01-31T10:09:36;6.75;3.50;3.00
69205;PMS7003;56319;48.920;2.332;2023-01-31T10:12:12;4.25;3.00;3.00
69205;PMS7003;56319;48.920;2.332;2023-01-31T10:14:46;3.00;3.00;2.50
69205;PMS7003;56319;48.920;2.332;2023-01-31T10:17:18;6.00;3.75;3.00
69205;PMS7003;56319;48.920;2.332;2023-01-31T10:22:59;5.50;4.00;3.25
69205;PMS7003;56319;48.920;2.332;2023-01-31T10:25:31;3.00;3.00;2.75
69205;PMS7003;56319;48.920;2.332;2023-01-31T10:28:04;4.75;3.25;3.00
69205;PMS7003;56319;48.920;2.332;2023-01-31T10:30:43;3.75;3.75;3.00
69205;PMS7003;56319;48.920;2.332;2023-01-31T10:36:10;4.25;4.00;3.50
69205;PMS7003;56319;48.920;2.332;2023-01-31T10:39:05;3.00;3.00;2.50
69205;PMS7003;56319;48.920;2.332;2023-01-31T10:41:58;6.00;4.00;3.00
69205;PMS7003;56319;48.920;2.332;2023-01-31T10:47:31;4.75;4.25;2.50
69205;PMS7003;56319;48.920;2.332;2023-01-31T10:49:59;5.50;4.00;3.50
69205;PMS7003;56319;48.920;2.332;2023-01-31T10:58:13;4.75;4.50;3.00
69205;PMS7003;56319;48.920;2.332;2023-01-31T11:00:42;7.00;4.75;3.00
69205;PMS7003;56319;48.920;2.332;2023-01-31T11:03:10;3.25;2.75;2.25
69205;PMS7003;56319;48.920;2.332;2023-01-31T11:05:38;6.00;2.00;1.75
69205;PMS7003;56319;48.920;2.332;2023-01-31T11:11:05;2.50;2.50;2.00
69205;PMS7003;56319;48.920;2.332;2023-01-31T11:13:34;2.25;2.25;1.75
69205;PMS7003;56319;48.920;2.332;2023-01-31T11:16:00;3.75;3.00;2.00
69205;PMS7003;56319;48.920;2.332;2023-01-31T11:18:30;3.00;3.00;2.25
69205;PMS7003;56319;48.920;2.332;2023-01-31T11:20:59;3.50;3.00;3.00
69205;PMS7003;56319;48.920;2.332;2023-01-31T11:23:27;4.25;2.25;2.00
69205;PMS7003;56319;48.920;2.332;2023-01-31T11:25:55;5.75;3.00;3.00
69205;PMS7003;56319;48.920;2.332;2023-01-31T11:28:23;2.00;2.00;2.00
69205;PMS7003;56319;48.920;2.332;2023-01-31T11:30:58;7.75;3.00;3.00
69205;PMS7003;56319;48.920;2.332;2023-01-31T11:33:36;2.00;2.00;1.00
69205;PMS7003;56319;48.920;2.332;2023-01-31T11:36:06;3.25;3.25;2.00
69205;PMS7003;56319;48.920;2.332;2023-01-31T11:38:33;3.00;3.00;2.00
69205;PMS7003;56319;48.920;2.332;2023-01-31T11:40:58;2.00;2.00;1.50
69205;PMS7003;56319;48.920;2.332;2023-01-31T11:43:25;3.75;2.00;1.50
69205;PMS7003;56319;48.920;2.332;2023-01-31T11:45:58;4.50;2.00;2.00
69205;PMS7003;56319;48.920;2.332;2023-01-31T11:51:19;5.50;2.50;2.00
69205;PMS7003;56319;48.920;2.332;2023-01-31T11:53:51;3.25;2.50;2.25
69205;PMS7003;56319;48.920;2.332;2023-01-31T11:56:19;3.50;2.00;1.75
69205;PMS7003;56319;48.920;2.332;2023-01-31T11:58:49;4.00;3.00;2.00
69205;PMS7003;56319;48.920;2.332;2023-01-31T12:01:19;2.00;2.00;1.25
69205;PMS7003;56319;48.920;2.332;2023-01-31T12:03:48;1.75;1.75;1.50
69205;PMS7003;56319;48.920;2.332;2023-01-31T12:09:05;2.00;2.00;1.50
69205;PMS7003;56319;48.920;2.332;2023-01-31T12:14:44;2.75;2.75;2.00
69205;PMS7003;56319;48.920;2.332;2023-01-31T12:17:12;3.25;1.25;1.25
69205;PMS7003;56319;48.920;2.332;2023-01-31T12:22:51;4.00;2.00;2.00
69205;PMS7003;56319;48.920;2.332;2023-01-31T12:25:45;2.00;2.00;2.00
69205;PMS7003;56319;48.920;2.332;2023-01-31T12:31:19;3.00;1.25;1.25
69205;PMS7003;56319;48.920;2.332;2023-01-31T12:34:01;2.50;2.00;1.50
69205;PMS7003;56319;48.920;2.332;2023-01-31T12:45:41;3.00;3.00;2.00
69205;PMS7003;56319;48.920;2.332;2023-01-31T12:48:35;2.50;2.50;2.00
69205;PMS7003;56319;48.920;2.332;2023-01-31T12:57:15;2.50;2.00;1.00
69205;PMS7003;56319;48.920;2.332;2023-01-31T12:59:55;2.00;2.00;2.00
69205;PMS7003;56319;48.920;2.332;2023-01-31T13:05:35;6.50;4.00;3.00
69205;PMS7003;56319;48.920;2.332;2023-01-31T13:08:25;1.50;1.50;1.25
69205;PMS7003;56319;48.920;2.332;2023-01-31T13:13:44;2.50;2.00;2.00
69205;PMS7003;56319;48.920;2.332;2023-01-31T13:19:03;4.00;2.00;1.75
69205;PMS7003;56319;48.920;2.332;2023-01-31T13:21:33;3.50;2.00;1.25
69205;PMS7003;56319;48.920;2.332;2023-01-31T13:24:08;2.50;2.25;1.50
69205;PMS7003;56319;48.920;2.332;2023-01-31T13:26:39;2.50;2.25;1.00
69205;PMS7003;56319;48.920;2.332;2023-01-31T13:29:13;1.75;1.00;1.00
69205;PMS7003;56319;48.920;2.332;2023-01-31T13:31:45;2.00;2.00;2.00
69205;PMS7003;56319;48.920;2.332;2023-01-31T13:34:17;2.25;2.25;2.00
69205;PMS7003;56319;48.920;2.332;2023-01-31T13:36:49;2.00;2.00;1.75
69205;PMS7003;56319;48.920;2.332;2023-01-31T13:39:22;4.25;3.00;3.00
69205;PMS7003;56319;48.920;2.332;2023-01-31T13:41:52;1.00;1.00;1.00
69205;PMS7003;56319;48.920;2.332;2023-01-31T13:44:17;5.50;1.50;1.00
69205;PMS7003;56319;48.920;2.332;2023-01-31T13:46:48;2.00;1.00;1.00
69205;PMS7003;56319;48.920;2.332;2023-01-31T13:49:22;2.50;2.25;2.00
69205;PMS7003;56319;48.920;2.332;2023-01-31T13:51:57;1.00;1.00;1.00
69205;PMS7003;56319;48.920;2.332;2023-01-31T13:54:34;2.00;2.00;2.00
69205;PMS7003;56319;48.920;2.332;2023-01-31T13:57:04;3.00;2.25;2.00
69205;PMS7003;56319;48.920;2.332;2023-01-31T13:59:31;0.25;0.25;0.25
69205;PMS7003;56319;48.920;2.332;2023-01-31T14:01:59;4.00;2.25;2.00
69205;PMS7003;56319;48.920;2.332;2023-01-31T14:04:29;2.00;2.00;1.00
69205;PMS7003;56319;48.920;2.332;2023-01-31T14:12:50;5.75;3.75;3.00
69205;PMS7003;56319;48.920;2.332;2023-01-31T14:15:56;6.00;3.25;2.00
69205;PMS7003;56319;48.920;2.332;2023-01-31T14:24:16;5.00;1.75;0.75
69205;PMS7003;56319;48.920;2.332;2023-01-31T14:26:50;3.50;2.00;1.00
69205;PMS7003;56319;48.920;2.332;2023-01-31T14:29:19;4.00;1.75;1.25
69205;PMS7003;56319;48.920;2.332;2023-01-31T14:31:47;5.00;2.00;1.25
69205;PMS7003;56319;48.920;2.332;2023-01-31T14:34:16;2.75;1.50;1.00
69205;PMS7003;56319;48.920;2.332;2023-01-31T14:36:52;1.25;1.25;1.00
69205;PMS7003;56319;48.920;2.332;2023-01-31T14:45:35;1.00;1.00;1.00
69205;PMS7003;56319;48.920;2.332;2023-01-31T14:48:22;1.50;1.50;1.00
69205;PMS7003;56319;48.920;2.332;2023-01-31T14:51:07;2.00;2.00;1.00
69205;PMS7003;56319;48.920;2.332;2023-01-31T14:53:58;1.25;1.25;1.00
69205;PMS7003;56319;48.920;2.332;2023-01-31T14:56:42;3.50;1.25;1.25
69205;PMS7003;56319;48.920;2.332;2023-01-31T14:59:32;4.75;1.00;1.00
69205;PMS7003;56319;48.920;2.332;2023-01-31T15:05:11;2.75;1.75;1.00
69205;PMS7003;56319;48.920;2.332;2023-01-31T15:13:40;4.00;1.00;1.00
69205;PMS7003;56319;48.920;2.332;2023-01-31T15:21:48;1.00;1.00;1.00
69205;PMS7003;56319;48.920;2.332;2023-01-31T15:24:22;2.25;1.25;1.25
69205;PMS7003;56319;48.920;2.332;2023-01-31T15:27:13;2.00;2.00;1.00
69205;PMS7003;56319;48.920;2.332;2023-01-31T15:29:50;3.00;1.50;1.00
69205;PMS7003;56319;48.920;2.332;2023-01-31T15:32:21;3.00;1.50;1.00
69205;PMS7003;56319;48.920;2.332;2023-01-31T15:34:53;2.00;2.00;1.25
69205;PMS7003;56319;48.920;2.332;2023-01-31T15:37:27;2.00;2.00;1.00
69205;PMS7003;56319;48.920;2.332;2023-01-31T15:39:59;3.00;1.75;1.00
69205;PMS7003;56319;48.920;2.332;2023-01-31T15:42:30;1.00;1.00;1.00
69205;PMS7003;56319;48.920;2.332;2023-01-31T15:47:57;3.00;1.25;1.25
69205;PMS7003;56319;48.920;2.332;2023-01-31T15:50:32;1.00;1.00;0.25
69205;PMS7003;56319;48.920;2.332;2023-01-31T15:53:01;2.25;2.00;1.00
69205;PMS7003;56319;48.920;2.332;2023-01-31T15:55:29;2.00;1.00;1.00
69205;PMS7003;56319;48.920;2.332;2023-01-31T15:57:58;1.75;1.00;1.00
69205;PMS7003;56319;48.920;2.332;2023-01-31T16:00:26;3.00;2.00;1.25
69205;PMS7003;56319;48.920;2.332;2023-01-31T16:02:55;2.00;1.75;1.00
69205;PMS7003;56319;48.920;2.332;2023-01-31T16:05:26;3.50;2.50;2.00
69205;PMS7003;56319;48.920;2.332;2023-01-31T16:07:53;2.00;2.00;1.75
69205;PMS7003;56319;48.920;2.332;2023-01-31T16:10:19;3.25;2.00;1.75
69205;PMS7003;56319;48.920;2.332;2023-01-31T16:12:47;3.25;2.00;2.00
69205;PMS7003;56319;48.920;2.332;2023-01-31T16:15:18;3.00;1.50;1.00
69205;PMS7003;56319;48.920;2.332;2023-01-31T16:17:47;3.25;2.00;1.75
69205;PMS7003;56319;48.920;2.332;2023-01-31T16:23:02;2.75;2.50;2.00
69205;PMS7003;56319;48.920;2.332;2023-01-31T16:25:29;1.00;1.00;1.00
69205;PMS7003;56319;48.920;2.332;2023-01-31T16:28:03;2.25;2.25;2.00
69205;PMS7003;56319;48.920;2.332;2023-01-31T16:30:31;3.00;3.00;2.25